Terminal Aerodrome Forecast
Issued by NWS Sterling, VA

Current Version | Previous Version | Text Only | Print | Product List | Glossary Off
Versions: 1 2 3 4 5 6 7 8 9 10 11 12 13 14 15 16 17 18 19 20 21 22 23

078
FTUS41 KLWX 141120
TAFDCA
TAF
KDCA 141120Z 1412/1512 00000KT P6SM OVC008
     FM141500 00000KT P6SM BKN010
     FM141700 00000KT P6SM BKN025
     FM142200 00000KT P6SM SCT035
     FM150600 00000KT 2SM BR SCT003
     FM150900 00000KT 1SM BR SCT003=

USA.gov is the U.S. government's official web portal to all federal, state and local government web resources and services.